ADDS METAR Data INFO
IDs: Format: Raw Decoded Include TAF

Data at: 1119 UTC 21 Feb 2018

PADK 201456Z AUTO 10016G25KT 10SM FEW036 05/M01 A2998 RMK AO2 PK WND 11026/1411 PRESFR SLP152 T00501006 58053
PADK 201356Z AUTO 11016G25KT 10SM BKN032 04/M01 A3006 RMK AO2 PK WND 10027/1302 SLP178 T00441006
PADK 201256Z AUTO 11020G23KT 10SM BKN080 04/M01 A3010 RMK AO2 SLP192 T00441006
PADK 201156Z AUTO 10017KT 10SM CLR 04/M01 A3014 RMK AO2 SLP205 T00391006 10039 20022 58031
PADK 201056Z AUTO 12013G24KT 10SM FEW030 SCT110 04/M01 A3019 RMK AO2 SLP223 T00391006
PADK 200956Z AUTO 12011KT 10SM FEW026 BKN035 OVC090 03/00 A3021 RMK AO2 SLP231 T00330000 400560022
PADK 200856Z AUTO 15006KT 10SM OVC110 03/M01 A3023 RMK AO2 SLP237 T00331011 55010
PADK 200756Z AUTO 16008KT 10SM CLR 03/M01 A3022 RMK AO2 SLP233 T00281011
PADK 200656Z AUTO 17008KT 10SM CLR 03/M03 A3024 RMK AO2 SLP239 T00281028
PADK 200556Z AUTO 19010KT 10SM FEW048 OVC060 03/M04 A3026 RMK AO2 RAB01E23 SLP246 P0000 60000 T00281044 10056 20028 51026
PADK 200456Z AUTO 19009KT 10SM OVC046 03/M04 A3025 RMK AO2 SLP243 T00331044
PADK 200356Z AUTO 19010KT 10SM OVC046 03/M05 A3020 RMK AO2 SLP226 T00331050
PADK 200256Z AUTO 20010KT 10SM OVC042 04/M03 A3018 RMK AO2 SLP220 T00391033 51018
PADK 200156Z AUTO 21009KT 10SM OVC041 04/M03 A3016 RMK AO2 SLP213 T00391033
PADK 200056Z AUTO 23016G20KT 10SM OVC049 04/M05 A3016 RMK AO2 SLP212 T00441050
PADK 192356Z AUTO 22014KT 10SM OVC047 05/M04 A3013 RMK AO2 SLP203 60000 T00501044 10050 20022 51030